sensor_id;sensor_type;location;lat;lon;timestamp;P1;durP1;ratioP1;P2;durP2;ratioP2
26820;SDS011;37186;51.394;5.454;2023-09-08T00:00:57;4.78;;;4.68;;
26820;SDS011;37186;51.394;5.454;2023-09-08T00:03:57;5.18;;;5.07;;
26820;SDS011;37186;51.394;5.454;2023-09-08T00:06:58;5.25;;;5.15;;
26820;SDS011;37186;51.394;5.454;2023-09-08T00:09:59;5.07;;;4.97;;
26820;SDS011;37186;51.394;5.454;2023-09-08T00:12:59;5.10;;;5.00;;
26820;SDS011;37186;51.394;5.454;2023-09-08T00:16:00;5.07;;;4.97;;
26820;SDS011;37186;51.394;5.454;2023-09-08T00:19:00;5.05;;;4.95;;
26820;SDS011;37186;51.394;5.454;2023-09-08T00:22:01;4.82;;;4.72;;
26820;SDS011;37186;51.394;5.454;2023-09-08T00:25:05;4.82;;;4.72;;
26820;SDS011;37186;51.394;5.454;2023-09-08T00:28:06;4.80;;;4.70;;
26820;SDS011;37186;51.394;5.454;2023-09-08T00:31:07;5.22;;;5.13;;
26820;SDS011;37186;51.394;5.454;2023-09-08T00:34:07;5.43;;;5.32;;
26820;SDS011;37186;51.394;5.454;2023-09-08T00:37:08;5.32;;;5.22;;
26820;SDS011;37186;51.394;5.454;2023-09-08T00:40:09;5.38;;;5.28;;
26820;SDS011;37186;51.394;5.454;2023-09-08T00:43:10;5.43;;;5.32;;
26820;SDS011;37186;51.394;5.454;2023-09-08T00:46:11;5.80;;;5.65;;
26820;SDS011;37186;51.394;5.454;2023-09-08T00:49:12;5.50;;;5.40;;
26820;SDS011;37186;51.394;5.454;2023-09-08T00:52:13;5.43;;;5.32;;
26820;SDS011;37186;51.394;5.454;2023-09-08T00:55:13;5.70;;;5.60;;
26820;SDS011;37186;51.394;5.454;2023-09-08T00:58:14;5.45;;;5.35;;
26820;SDS011;37186;51.394;5.454;2023-09-08T01:01:15;5.75;;;5.57;;
26820;SDS011;37186;51.394;5.454;2023-09-08T01:04:17;6.03;;;5.82;;
26820;SDS011;37186;51.394;5.454;2023-09-08T01:07:17;5.57;;;5.47;;
26820;SDS011;37186;51.394;5.454;2023-09-08T01:10:20;5.82;;;5.68;;
26820;SDS011;37186;51.394;5.454;2023-09-08T01:13:21;6.43;;;6.22;;
26820;SDS011;37186;51.394;5.454;2023-09-08T01:16:21;6.20;;;6.00;;
26820;SDS011;37186;51.394;5.454;2023-09-08T01:19:22;6.03;;;5.82;;
26820;SDS011;37186;51.394;5.454;2023-09-08T01:28:54;6.22;;;6.03;;
26820;SDS011;37186;51.394;5.454;2023-09-08T01:31:55;6.30;;;6.10;;
26820;SDS011;37186;51.394;5.454;2023-09-08T01:34:57;6.43;;;6.22;;
26820;SDS011;37186;51.394;5.454;2023-09-08T01:37:59;6.25;;;6.05;;
26820;SDS011;37186;51.394;5.454;2023-09-08T01:41:00;6.32;;;6.13;;
26820;SDS011;37186;51.394;5.454;2023-09-08T01:44:01;6.10;;;5.90;;
26820;SDS011;37186;51.394;5.454;2023-09-08T01:47:07;5.97;;;5.78;;
26820;SDS011;37186;51.394;5.454;2023-09-08T01:50:08;6.28;;;6.07;;
26820;SDS011;37186;51.394;5.454;2023-09-08T01:53:09;6.07;;;5.88;;
26820;SDS011;37186;51.394;5.454;2023-09-08T01:56:09;5.95;;;5.75;;
26820;SDS011;37186;51.394;5.454;2023-09-08T01:59:10;5.72;;;5.60;;
26820;SDS011;37186;51.394;5.454;2023-09-08T02:02:11;5.93;;;5.75;;
26820;SDS011;37186;51.394;5.454;2023-09-08T02:05:11;5.80;;;5.65;;
26820;SDS011;37186;51.394;5.454;2023-09-08T02:08:12;6.07;;;5.88;;
26820;SDS011;37186;51.394;5.454;2023-09-08T02:11:13;5.93;;;5.75;;
26820;SDS011;37186;51.394;5.454;2023-09-08T02:14:13;5.90;;;5.72;;
26820;SDS011;37186;51.394;5.454;2023-09-08T02:17:14;5.95;;;5.78;;
26820;SDS011;37186;51.394;5.454;2023-09-08T02:20:14;5.65;;;5.50;;
26820;SDS011;37186;51.394;5.454;2023-09-08T02:23:15;5.43;;;5.30;;
26820;SDS011;37186;51.394;5.454;2023-09-08T02:26:16;5.38;;;5.28;;
26820;SDS011;37186;51.394;5.454;2023-09-08T02:29:16;5.45;;;5.32;;
26820;SDS011;37186;51.394;5.454;2023-09-08T02:32:17;5.25;;;5.15;;
26820;SDS011;37186;51.394;5.454;2023-09-08T02:35:17;5.25;;;5.15;;
26820;SDS011;37186;51.394;5.454;2023-09-08T02:38:18;5.57;;;5.45;;
26820;SDS011;37186;51.394;5.454;2023-09-08T02:41:18;5.18;;;5.07;;
26820;SDS011;37186;51.394;5.454;2023-09-08T02:44:19;5.35;;;5.25;;
26820;SDS011;37186;51.394;5.454;2023-09-08T02:47:22;5.38;;;5.28;;
26820;SDS011;37186;51.394;5.454;2023-09-08T02:50:22;5.45;;;5.35;;
26820;SDS011;37186;51.394;5.454;2023-09-08T02:53:23;5.85;;;5.70;;
26820;SDS011;37186;51.394;5.454;2023-09-08T02:56:23;5.28;;;5.18;;
26820;SDS011;37186;51.394;5.454;2023-09-08T02:59:24;5.68;;;5.53;;
26820;SDS011;37186;51.394;5.454;2023-09-08T03:02:25;5.40;;;5.30;;
26820;SDS011;37186;51.394;5.454;2023-09-08T03:05:26;5.43;;;5.32;;
26820;SDS011;37186;51.394;5.454;2023-09-08T03:08:26;5.43;;;5.32;;
26820;SDS011;37186;51.394;5.454;2023-09-08T03:11:27;5.32;;;5.22;;
26820;SDS011;37186;51.394;5.454;2023-09-08T03:14:28;5.30;;;5.20;;
26820;SDS011;37186;51.394;5.454;2023-09-08T03:17:28;5.63;;;5.50;;
26820;SDS011;37186;51.394;5.454;2023-09-08T03:20:29;5.68;;;5.57;;
26820;SDS011;37186;51.394;5.454;2023-09-08T03:23:30;5.75;;;5.57;;
26820;SDS011;37186;51.394;5.454;2023-09-08T03:26:30;6.18;;;5.97;;
26820;SDS011;37186;51.394;5.454;2023-09-08T03:29:31;5.50;;;5.40;;
26820;SDS011;37186;51.394;5.454;2023-09-08T03:32:31;5.97;;;5.78;;
26820;SDS011;37186;51.394;5.454;2023-09-08T03:35:32;5.25;;;5.15;;
26820;SDS011;37186;51.394;5.454;2023-09-08T03:38:32;5.55;;;5.45;;
26820;SDS011;37186;51.394;5.454;2023-09-08T03:41:33;5.65;;;5.53;;
26820;SDS011;37186;51.394;5.454;2023-09-08T03:44:33;5.63;;;5.53;;
26820;SDS011;37186;51.394;5.454;2023-09-08T03:47:34;5.43;;;5.32;;
26820;SDS011;37186;51.394;5.454;2023-09-08T03:50:34;5.68;;;5.53;;
26820;SDS011;37186;51.394;5.454;2023-09-08T03:53:35;5.50;;;5.40;;
26820;SDS011;37186;51.394;5.454;2023-09-08T03:56:36;5.15;;;5.05;;
26820;SDS011;37186;51.394;5.454;2023-09-08T03:59:36;5.50;;;5.38;;
26820;SDS011;37186;51.394;5.454;2023-09-08T04:02:37;5.28;;;5.18;;
26820;SDS011;37186;51.394;5.454;2023-09-08T04:05:37;5.10;;;5.00;;
26820;SDS011;37186;51.394;5.454;2023-09-08T04:08:38;5.20;;;5.10;;
26820;SDS011;37186;51.394;5.454;2023-09-08T04:11:39;4.82;;;4.72;;
26820;SDS011;37186;51.394;5.454;2023-09-08T04:14:39;5.00;;;4.90;;
26820;SDS011;37186;51.394;5.454;2023-09-08T04:17:40;4.90;;;4.80;;
26820;SDS011;37186;51.394;5.454;2023-09-08T04:20:40;4.60;;;4.50;;
26820;SDS011;37186;51.394;5.454;2023-09-08T04:23:41;4.68;;;4.57;;
26820;SDS011;37186;51.394;5.454;2023-09-08T04:26:42;4.38;;;4.28;;
26820;SDS011;37186;51.394;5.454;2023-09-08T04:29:42;4.43;;;4.32;;
26820;SDS011;37186;51.394;5.454;2023-09-08T04:32:43;4.10;;;4.00;;
26820;SDS011;37186;51.394;5.454;2023-09-08T04:35:43;4.20;;;4.10;;
26820;SDS011;37186;51.394;5.454;2023-09-08T04:38:44;4.03;;;3.92;;
26820;SDS011;37186;51.394;5.454;2023-09-08T04:41:45;4.10;;;4.00;;
26820;SDS011;37186;51.394;5.454;2023-09-08T04:44:45;3.92;;;3.83;;
26820;SDS011;37186;51.394;5.454;2023-09-08T04:47:46;4.03;;;3.92;;
26820;SDS011;37186;51.394;5.454;2023-09-08T04:50:46;3.53;;;3.42;;
26820;SDS011;37186;51.394;5.454;2023-09-08T04:53:47;3.67;;;3.58;;
26820;SDS011;37186;51.394;5.454;2023-09-08T04:56:48;3.88;;;3.78;;
26820;SDS011;37186;51.394;5.454;2023-09-08T04:59:48;3.58;;;3.47;;
26820;SDS011;37186;51.394;5.454;2023-09-08T05:02:49;3.58;;;3.47;;
26820;SDS011;37186;51.394;5.454;2023-09-08T05:05:49;3.78;;;3.67;;
26820;SDS011;37186;51.394;5.454;2023-09-08T05:08:51;3.58;;;3.47;;
26820;SDS011;37186;51.394;5.454;2023-09-08T05:11:51;3.60;;;3.50;;
26820;SDS011;37186;51.394;5.454;2023-09-08T05:14:52;3.70;;;3.60;;
26820;SDS011;37186;51.394;5.454;2023-09-08T05:17:56;3.47;;;3.38;;
26820;SDS011;37186;51.394;5.454;2023-09-08T05:20:57;3.65;;;3.55;;
26820;SDS011;37186;51.394;5.454;2023-09-08T05:23:57;3.58;;;3.47;;
26820;SDS011;37186;51.394;5.454;2023-09-08T05:26:58;3.53;;;3.42;;
26820;SDS011;37186;51.394;5.454;2023-09-08T05:29:59;3.55;;;3.45;;
26820;SDS011;37186;51.394;5.454;2023-09-08T05:32:59;3.58;;;3.47;;
26820;SDS011;37186;51.394;5.454;2023-09-08T05:36:00;3.60;;;3.50;;
26820;SDS011;37186;51.394;5.454;2023-09-08T05:39:00;3.50;;;3.40;;
26820;SDS011;37186;51.394;5.454;2023-09-08T05:42:02;3.67;;;3.58;;
26820;SDS011;37186;51.394;5.454;2023-09-08T05:45:03;3.65;;;3.55;;
26820;SDS011;37186;51.394;5.454;2023-09-08T05:48:04;3.40;;;3.30;;
26820;SDS011;37186;51.394;5.454;2023-09-08T05:51:04;3.50;;;3.40;;
26820;SDS011;37186;51.394;5.454;2023-09-08T05:54:06;3.45;;;3.35;;
26820;SDS011;37186;51.394;5.454;2023-09-08T05:57:07;3.53;;;3.42;;
26820;SDS011;37186;51.394;5.454;2023-09-08T06:00:08;3.53;;;3.42;;
26820;SDS011;37186;51.394;5.454;2023-09-08T06:03:08;3.50;;;3.40;;
26820;SDS011;37186;51.394;5.454;2023-09-08T06:06:09;3.65;;;3.55;;
26820;SDS011;37186;51.394;5.454;2023-09-08T06:09:10;3.47;;;3.38;;
26820;SDS011;37186;51.394;5.454;2023-09-08T06:12:12;3.50;;;3.40;;
26820;SDS011;37186;51.394;5.454;2023-09-08T06:15:12;3.55;;;3.45;;
26820;SDS011;37186;51.394;5.454;2023-09-08T06:18:13;3.70;;;3.60;;
26820;SDS011;37186;51.394;5.454;2023-09-08T06:21:13;3.65;;;3.55;;
26820;SDS011;37186;51.394;5.454;2023-09-08T06:24:14;3.67;;;3.58;;
26820;SDS011;37186;51.394;5.454;2023-09-08T06:27:15;3.72;;;3.63;;
26820;SDS011;37186;51.394;5.454;2023-09-08T06:30:15;3.60;;;3.50;;
26820;SDS011;37186;51.394;5.454;2023-09-08T06:33:18;3.67;;;3.58;;
26820;SDS011;37186;51.394;5.454;2023-09-08T06:36:18;3.75;;;3.65;;
26820;SDS011;37186;51.394;5.454;2023-09-08T06:39:19;3.67;;;3.58;;
26820;SDS011;37186;51.394;5.454;2023-09-08T06:42:20;3.70;;;3.60;;
26820;SDS011;37186;51.394;5.454;2023-09-08T06:45:20;3.55;;;3.45;;
26820;SDS011;37186;51.394;5.454;2023-09-08T06:48:21;3.53;;;3.42;;
26820;SDS011;37186;51.394;5.454;2023-09-08T06:51:21;3.60;;;3.50;;
26820;SDS011;37186;51.394;5.454;2023-09-08T06:54:22;3.70;;;3.60;;
26820;SDS011;37186;51.394;5.454;2023-09-08T06:57:22;3.70;;;3.60;;
26820;SDS011;37186;51.394;5.454;2023-09-08T07:00:23;3.90;;;3.80;;
26820;SDS011;37186;51.394;5.454;2023-09-08T07:03:24;3.85;;;3.75;;
26820;SDS011;37186;51.394;5.454;2023-09-08T07:06:26;3.90;;;3.80;;
26820;SDS011;37186;51.394;5.454;2023-09-08T07:09:26;3.90;;;3.80;;
26820;SDS011;37186;51.394;5.454;2023-09-08T07:12:27;4.22;;;4.13;;
26820;SDS011;37186;51.394;5.454;2023-09-08T07:15:27;4.00;;;3.90;;
26820;SDS011;37186;51.394;5.454;2023-09-08T07:18:28;4.15;;;4.05;;
26820;SDS011;37186;51.394;5.454;2023-09-08T07:21:28;4.28;;;4.18;;
26820;SDS011;37186;51.394;5.454;2023-09-08T07:24:29;4.43;;;4.32;;
26820;SDS011;37186;51.394;5.454;2023-09-08T07:27:30;4.40;;;4.30;;
26820;SDS011;37186;51.394;5.454;2023-09-08T07:30:33;4.32;;;4.22;;
26820;SDS011;37186;51.394;5.454;2023-09-08T07:33:34;4.47;;;4.38;;
26820;SDS011;37186;51.394;5.454;2023-09-08T07:36:35;4.32;;;4.22;;
26820;SDS011;37186;51.394;5.454;2023-09-08T07:39:36;4.45;;;4.35;;
26820;SDS011;37186;51.394;5.454;2023-09-08T07:42:37;4.68;;;4.57;;
26820;SDS011;37186;51.394;5.454;2023-09-08T07:45:37;4.45;;;4.35;;
26820;SDS011;37186;51.394;5.454;2023-09-08T07:48:40;4.28;;;4.18;;
26820;SDS011;37186;51.394;5.454;2023-09-08T07:51:40;4.57;;;4.47;;
26820;SDS011;37186;51.394;5.454;2023-09-08T07:54:41;4.65;;;4.55;;
26820;SDS011;37186;51.394;5.454;2023-09-08T07:57:42;4.43;;;4.32;;
26820;SDS011;37186;51.394;5.454;2023-09-08T08:00:44;4.70;;;4.60;;
26820;SDS011;37186;51.394;5.454;2023-09-08T08:03:44;4.68;;;4.57;;
26820;SDS011;37186;51.394;5.454;2023-09-08T08:06:45;4.63;;;4.53;;
26820;SDS011;37186;51.394;5.454;2023-09-08T08:09:47;4.32;;;4.22;;
26820;SDS011;37186;51.394;5.454;2023-09-08T08:12:48;4.78;;;4.68;;
26820;SDS011;37186;51.394;5.454;2023-09-08T08:15:48;4.70;;;4.60;;
26820;SDS011;37186;51.394;5.454;2023-09-08T08:18:49;4.85;;;4.75;;
26820;SDS011;37186;51.394;5.454;2023-09-08T08:21:50;4.93;;;4.82;;
26820;SDS011;37186;51.394;5.454;2023-09-08T08:24:51;4.85;;;4.75;;
26820;SDS011;37186;51.394;5.454;2023-09-08T08:27:51;4.88;;;4.78;;
26820;SDS011;37186;51.394;5.454;2023-09-08T08:30:52;4.63;;;4.53;;
26820;SDS011;37186;51.394;5.454;2023-09-08T08:33:52;5.18;;;5.07;;
26820;SDS011;37186;51.394;5.454;2023-09-08T08:36:53;4.80;;;4.70;;
26820;SDS011;37186;51.394;5.454;2023-09-08T08:39:54;4.63;;;4.53;;
26820;SDS011;37186;51.394;5.454;2023-09-08T08:42:55;4.53;;;4.43;;
26820;SDS011;37186;51.394;5.454;2023-09-08T08:45:57;4.40;;;4.30;;
26820;SDS011;37186;51.394;5.454;2023-09-08T08:49:00;4.50;;;4.40;;
26820;SDS011;37186;51.394;5.454;2023-09-08T08:52:03;4.60;;;4.50;;
26820;SDS011;37186;51.394;5.454;2023-09-08T08:55:07;4.68;;;4.57;;
26820;SDS011;37186;51.394;5.454;2023-09-08T08:58:08;4.35;;;4.25;;
26820;SDS011;37186;51.394;5.454;2023-09-08T09:01:10;4.25;;;4.15;;
26820;SDS011;37186;51.394;5.454;2023-09-08T09:04:12;4.50;;;4.40;;
26820;SDS011;37186;51.394;5.454;2023-09-08T09:07:13;5.00;;;4.90;;
26820;SDS011;37186;51.394;5.454;2023-09-08T09:10:14;4.85;;;4.75;;
26820;SDS011;37186;51.394;5.454;2023-09-08T09:13:15;4.85;;;4.75;;
26820;SDS011;37186;51.394;5.454;2023-09-08T09:16:16;4.75;;;4.65;;
26820;SDS011;37186;51.394;5.454;2023-09-08T09:19:20;4.88;;;4.78;;
26820;SDS011;37186;51.394;5.454;2023-09-08T09:22:28;4.88;;;4.78;;
26820;SDS011;37186;51.394;5.454;2023-09-08T09:25:36;5.38;;;5.28;;
26820;SDS011;37186;51.394;5.454;2023-09-08T09:28:46;5.07;;;4.97;;
26820;SDS011;37186;51.394;5.454;2023-09-08T09:31:54;5.45;;;5.35;;
26820;SDS011;37186;51.394;5.454;2023-09-08T09:34:57;5.32;;;5.22;;
26820;SDS011;37186;51.394;5.454;2023-09-08T09:38:00;4.78;;;4.68;;
26820;SDS011;37186;51.394;5.454;2023-09-08T09:41:03;5.15;;;5.05;;
26820;SDS011;37186;51.394;5.454;2023-09-08T09:44:03;5.13;;;5.03;;
26820;SDS011;37186;51.394;5.454;2023-09-08T09:47:05;5.75;;;5.60;;
26820;SDS011;37186;51.394;5.454;2023-09-08T09:50:07;5.22;;;5.13;;
26820;SDS011;37186;51.394;5.454;2023-09-08T09:53:08;5.35;;;5.25;;
26820;SDS011;37186;51.394;5.454;2023-09-08T09:56:13;5.53;;;5.43;;
26820;SDS011;37186;51.394;5.454;2023-09-08T09:59:16;5.47;;;5.38;;
26820;SDS011;37186;51.394;5.454;2023-09-08T10:02:18;5.40;;;5.30;;
26820;SDS011;37186;51.394;5.454;2023-09-08T10:05:23;5.20;;;5.10;;
26820;SDS011;37186;51.394;5.454;2023-09-08T10:08:24;4.85;;;4.75;;
26820;SDS011;37186;51.394;5.454;2023-09-08T10:11:24;4.68;;;4.57;;
26820;SDS011;37186;51.394;5.454;2023-09-08T10:14:30;4.78;;;4.68;;
26820;SDS011;37186;51.394;5.454;2023-09-08T10:17:35;4.10;;;4.00;;
26820;SDS011;37186;51.394;5.454;2023-09-08T10:20:37;3.70;;;3.60;;
26820;SDS011;37186;51.394;5.454;2023-09-08T10:23:44;3.80;;;3.70;;
26820;SDS011;37186;51.394;5.454;2023-09-08T10:27:04;3.70;;;3.60;;
26820;SDS011;37186;51.394;5.454;2023-09-08T10:30:10;3.15;;;3.05;;
26820;SDS011;37186;51.394;5.454;2023-09-08T10:33:12;3.20;;;3.10;;
26820;SDS011;37186;51.394;5.454;2023-09-08T10:36:13;3.33;;;3.22;;
26820;SDS011;37186;51.394;5.454;2023-09-08T10:39:31;3.30;;;3.20;;
26820;SDS011;37186;51.394;5.454;2023-09-08T10:42:31;3.05;;;2.95;;
26820;SDS011;37186;51.394;5.454;2023-09-08T10:45:32;2.90;;;2.80;;
26820;SDS011;37186;51.394;5.454;2023-09-08T10:48:39;3.10;;;3.00;;
26820;SDS011;37186;51.394;5.454;2023-09-08T10:51:41;3.00;;;2.90;;
26820;SDS011;37186;51.394;5.454;2023-09-08T10:54:43;2.90;;;2.80;;
26820;SDS011;37186;51.394;5.454;2023-09-08T10:57:47;3.00;;;2.90;;
26820;SDS011;37186;51.394;5.454;2023-09-08T11:00:50;2.85;;;2.75;;
26820;SDS011;37186;51.394;5.454;2023-09-08T11:03:54;3.10;;;3.00;;
26820;SDS011;37186;51.394;5.454;2023-09-08T11:06:56;2.88;;;2.80;;
26820;SDS011;37186;51.394;5.454;2023-09-08T11:09:56;3.00;;;2.90;;
26820;SDS011;37186;51.394;5.454;2023-09-08T11:12:57;3.30;;;3.20;;
26820;SDS011;37186;51.394;5.454;2023-09-08T11:16:01;3.25;;;3.15;;
26820;SDS011;37186;51.394;5.454;2023-09-08T11:19:02;3.22;;;3.13;;
26820;SDS011;37186;51.394;5.454;2023-09-08T11:22:04;3.55;;;3.45;;
26820;SDS011;37186;51.394;5.454;2023-09-08T11:25:08;3.60;;;3.50;;
26820;SDS011;37186;51.394;5.454;2023-09-08T11:28:12;4.03;;;3.92;;
26820;SDS011;37186;51.394;5.454;2023-09-08T11:31:13;4.07;;;3.97;;
26820;SDS011;37186;51.394;5.454;2023-09-08T11:34:13;4.38;;;4.28;;
26820;SDS011;37186;51.394;5.454;2023-09-08T11:37:17;4.68;;;4.57;;
26820;SDS011;37186;51.394;5.454;2023-09-08T11:40:18;4.82;;;4.72;;
26820;SDS011;37186;51.394;5.454;2023-09-08T11:43:20;4.72;;;4.63;;
26820;SDS011;37186;51.394;5.454;2023-09-08T11:46:21;4.93;;;4.82;;
26820;SDS011;37186;51.394;5.454;2023-09-08T11:49:21;4.97;;;4.88;;
26820;SDS011;37186;51.394;5.454;2023-09-08T11:52:23;4.68;;;4.57;;
26820;SDS011;37186;51.394;5.454;2023-09-08T11:55:24;5.47;;;5.38;;
26820;SDS011;37186;51.394;5.454;2023-09-08T11:58:25;4.50;;;4.40;;
26820;SDS011;37186;51.394;5.454;2023-09-08T12:01:26;5.05;;;4.95;;
26820;SDS011;37186;51.394;5.454;2023-09-08T12:04:27;6.00;;;5.80;;
26820;SDS011;37186;51.394;5.454;2023-09-08T12:07:28;5.80;;;5.65;;
26820;SDS011;37186;51.394;5.454;2023-09-08T12:10:28;5.60;;;5.47;;
26820;SDS011;37186;51.394;5.454;2023-09-08T12:13:29;4.75;;;4.65;;
26820;SDS011;37186;51.394;5.454;2023-09-08T12:16:29;5.22;;;5.13;;
26820;SDS011;37186;51.394;5.454;2023-09-08T12:19:30;4.95;;;4.85;;
26820;SDS011;37186;51.394;5.454;2023-09-08T12:22:32;4.35;;;4.25;;
26820;SDS011;37186;51.394;5.454;2023-09-08T12:25:33;4.13;;;4.03;;
26820;SDS011;37186;51.394;5.454;2023-09-08T12:28:34;3.60;;;3.50;;
26820;SDS011;37186;51.394;5.454;2023-09-08T12:31:35;3.83;;;3.72;;
26820;SDS011;37186;51.394;5.454;2023-09-08T12:34:35;3.97;;;3.88;;
26820;SDS011;37186;51.394;5.454;2023-09-08T12:37:36;3.83;;;3.72;;
26820;SDS011;37186;51.394;5.454;2023-09-08T12:40:39;4.13;;;4.03;;
26820;SDS011;37186;51.394;5.454;2023-09-08T12:43:39;4.50;;;4.40;;
26820;SDS011;37186;51.394;5.454;2023-09-08T12:46:40;5.07;;;4.97;;
26820;SDS011;37186;51.394;5.454;2023-09-08T12:49:40;6.32;;;6.13;;
26820;SDS011;37186;51.394;5.454;2023-09-08T12:52:41;5.38;;;5.28;;
26820;SDS011;37186;51.394;5.454;2023-09-08T12:55:41;6.20;;;6.00;;
26820;SDS011;37186;51.394;5.454;2023-09-08T12:58:42;6.38;;;6.18;;
26820;SDS011;37186;51.394;5.454;2023-09-08T13:01:43;6.68;;;6.47;;
26820;SDS011;37186;51.394;5.454;2023-09-08T13:04:43;6.68;;;6.47;;
26820;SDS011;37186;51.394;5.454;2023-09-08T13:07:48;6.97;;;6.78;;
26820;SDS011;37186;51.394;5.454;2023-09-08T13:10:49;6.50;;;6.30;;
26820;SDS011;37186;51.394;5.454;2023-09-08T13:13:49;3.83;;;3.72;;
26820;SDS011;37186;51.394;5.454;2023-09-08T13:16:50;3.60;;;3.50;;
26820;SDS011;37186;51.394;5.454;2023-09-08T13:19:50;3.40;;;3.30;;
26820;SDS011;37186;51.394;5.454;2023-09-08T13:22:51;3.40;;;3.30;;
26820;SDS011;37186;51.394;5.454;2023-09-08T13:25:51;3.20;;;3.10;;
26820;SDS011;37186;51.394;5.454;2023-09-08T13:28:52;3.17;;;3.08;;
26820;SDS011;37186;51.394;5.454;2023-09-08T13:31:53;3.42;;;3.33;;
26820;SDS011;37186;51.394;5.454;2023-09-08T13:34:54;3.00;;;2.90;;
26820;SDS011;37186;51.394;5.454;2023-09-08T13:37:55;3.30;;;3.20;;
26820;SDS011;37186;51.394;5.454;2023-09-08T13:40:55;3.42;;;3.33;;
26820;SDS011;37186;51.394;5.454;2023-09-08T13:43:56;3.20;;;3.10;;
26820;SDS011;37186;51.394;5.454;2023-09-08T13:46:59;3.00;;;2.90;;
26820;SDS011;37186;51.394;5.454;2023-09-08T13:49:59;2.83;;;2.72;;
26820;SDS011;37186;51.394;5.454;2023-09-08T13:53:00;2.60;;;2.60;;
26820;SDS011;37186;51.394;5.454;2023-09-08T13:56:00;3.55;;;3.45;;
26820;SDS011;37186;51.394;5.454;2023-09-08T13:59:02;2.90;;;2.80;;
26820;SDS011;37186;51.394;5.454;2023-09-08T14:02:03;2.90;;;2.80;;
26820;SDS011;37186;51.394;5.454;2023-09-08T14:05:04;2.95;;;2.85;;
26820;SDS011;37186;51.394;5.454;2023-09-08T14:08:05;3.30;;;3.20;;
26820;SDS011;37186;51.394;5.454;2023-09-08T14:11:05;3.45;;;3.35;;
26820;SDS011;37186;51.394;5.454;2023-09-08T14:14:07;3.50;;;3.40;;
26820;SDS011;37186;51.394;5.454;2023-09-08T14:17:07;3.72;;;3.63;;
26820;SDS011;37186;51.394;5.454;2023-09-08T14:20:08;3.80;;;3.70;;
26820;SDS011;37186;51.394;5.454;2023-09-08T14:23:09;4.18;;;4.07;;
26820;SDS011;37186;51.394;5.454;2023-09-08T14:26:10;3.03;;;2.92;;
26820;SDS011;37186;51.394;5.454;2023-09-08T14:29:11;3.30;;;3.20;;
26820;SDS011;37186;51.394;5.454;2023-09-08T14:32:12;3.40;;;3.30;;
26820;SDS011;37186;51.394;5.454;2023-09-08T14:35:12;3.50;;;3.40;;
26820;SDS011;37186;51.394;5.454;2023-09-08T14:38:13;3.15;;;3.05;;
26820;SDS011;37186;51.394;5.454;2023-09-08T14:41:16;3.75;;;3.65;;
26820;SDS011;37186;51.394;5.454;2023-09-08T14:44:17;3.70;;;3.60;;
26820;SDS011;37186;51.394;5.454;2023-09-08T14:47:17;4.25;;;4.15;;
26820;SDS011;37186;51.394;5.454;2023-09-08T14:50:18;4.30;;;4.20;;
26820;SDS011;37186;51.394;5.454;2023-09-08T14:53:19;4.25;;;4.15;;
26820;SDS011;37186;51.394;5.454;2023-09-08T14:56:19;2.90;;;2.80;;
26820;SDS011;37186;51.394;5.454;2023-09-08T14:59:20;3.40;;;3.30;;
26820;SDS011;37186;51.394;5.454;2023-09-08T15:02:21;3.40;;;3.30;;
26820;SDS011;37186;51.394;5.454;2023-09-08T15:05:22;3.60;;;3.50;;
26820;SDS011;37186;51.394;5.454;2023-09-08T15:08:23;3.80;;;3.70;;
26820;SDS011;37186;51.394;5.454;2023-09-08T15:11:23;3.53;;;3.42;;
26820;SDS011;37186;51.394;5.454;2023-09-08T15:14:24;3.58;;;3.47;;
26820;SDS011;37186;51.394;5.454;2023-09-08T15:17:24;3.72;;;3.63;;
26820;SDS011;37186;51.394;5.454;2023-09-08T15:20:25;3.30;;;3.20;;
26820;SDS011;37186;51.394;5.454;2023-09-08T15:23:25;4.18;;;4.07;;
26820;SDS011;37186;51.394;5.454;2023-09-08T15:26:26;4.53;;;4.43;;
26820;SDS011;37186;51.394;5.454;2023-09-08T15:29:27;4.55;;;4.45;;
26820;SDS011;37186;51.394;5.454;2023-09-08T15:32:27;4.70;;;4.60;;
26820;SDS011;37186;51.394;5.454;2023-09-08T15:35:28;5.05;;;4.95;;
26820;SDS011;37186;51.394;5.454;2023-09-08T15:38:28;5.45;;;5.35;;
26820;SDS011;37186;51.394;5.454;2023-09-08T15:41:29;5.50;;;5.40;;
26820;SDS011;37186;51.394;5.454;2023-09-08T15:44:29;4.68;;;4.57;;
26820;SDS011;37186;51.394;5.454;2023-09-08T15:47:30;3.95;;;3.85;;
26820;SDS011;37186;51.394;5.454;2023-09-08T15:50:30;3.70;;;3.60;;
26820;SDS011;37186;51.394;5.454;2023-09-08T15:53:31;4.15;;;4.05;;
26820;SDS011;37186;51.394;5.454;2023-09-08T15:56:32;3.58;;;3.47;;
26820;SDS011;37186;51.394;5.454;2023-09-08T15:59:33;3.20;;;3.10;;
26820;SDS011;37186;51.394;5.454;2023-09-08T16:02:33;2.80;;;2.70;;
26820;SDS011;37186;51.394;5.454;2023-09-08T16:05:34;3.08;;;2.97;;
26820;SDS011;37186;51.394;5.454;2023-09-08T16:08:36;2.85;;;2.75;;
26820;SDS011;37186;51.394;5.454;2023-09-08T16:11:37;2.40;;;2.40;;
26820;SDS011;37186;51.394;5.454;2023-09-08T16:14:37;2.53;;;2.53;;
26820;SDS011;37186;51.394;5.454;2023-09-08T16:17:38;2.35;;;2.35;;
26820;SDS011;37186;51.394;5.454;2023-09-08T16:20:38;2.47;;;2.47;;
26820;SDS011;37186;51.394;5.454;2023-09-08T16:23:39;2.42;;;2.42;;
26820;SDS011;37186;51.394;5.454;2023-09-08T16:26:40;2.40;;;2.40;;
26820;SDS011;37186;51.394;5.454;2023-09-08T16:29:40;2.42;;;2.42;;
26820;SDS011;37186;51.394;5.454;2023-09-08T16:32:41;2.97;;;2.88;;
26820;SDS011;37186;51.394;5.454;2023-09-08T16:35:42;3.72;;;3.63;;
26820;SDS011;37186;51.394;5.454;2023-09-08T16:38:43;3.40;;;3.30;;
26820;SDS011;37186;51.394;5.454;2023-09-08T16:41:43;3.67;;;3.58;;
26820;SDS011;37186;51.394;5.454;2023-09-08T16:44:44;4.00;;;3.90;;
26820;SDS011;37186;51.394;5.454;2023-09-08T16:47:44;3.97;;;3.88;;
26820;SDS011;37186;51.394;5.454;2023-09-08T16:50:45;3.60;;;3.50;;
26820;SDS011;37186;51.394;5.454;2023-09-08T16:53:45;3.45;;;3.35;;
26820;SDS011;37186;51.394;5.454;2023-09-08T16:56:46;3.65;;;3.55;;
26820;SDS011;37186;51.394;5.454;2023-09-08T16:59:46;3.55;;;3.45;;
26820;SDS011;37186;51.394;5.454;2023-09-08T17:02:47;3.10;;;3.00;;
26820;SDS011;37186;51.394;5.454;2023-09-08T17:05:48;3.08;;;2.97;;
26820;SDS011;37186;51.394;5.454;2023-09-08T17:08:48;3.00;;;2.90;;
26820;SDS011;37186;51.394;5.454;2023-09-08T17:11:49;2.83;;;2.72;;
26820;SDS011;37186;51.394;5.454;2023-09-08T17:14:49;2.80;;;2.70;;
26820;SDS011;37186;51.394;5.454;2023-09-08T17:17:50;2.58;;;2.58;;
26820;SDS011;37186;51.394;5.454;2023-09-08T17:20:54;2.95;;;2.85;;
26820;SDS011;37186;51.394;5.454;2023-09-08T17:23:57;2.92;;;2.83;;
26820;SDS011;37186;51.394;5.454;2023-09-08T17:26:58;2.65;;;2.65;;
26820;SDS011;37186;51.394;5.454;2023-09-08T17:29:59;3.08;;;2.97;;
26820;SDS011;37186;51.394;5.454;2023-09-08T17:32:59;3.10;;;3.00;;
26820;SDS011;37186;51.394;5.454;2023-09-08T17:36:00;3.30;;;3.20;;
26820;SDS011;37186;51.394;5.454;2023-09-08T17:39:00;3.55;;;3.45;;
26820;SDS011;37186;51.394;5.454;2023-09-08T17:42:01;4.47;;;4.38;;
26820;SDS011;37186;51.394;5.454;2023-09-08T17:45:02;4.85;;;4.75;;
26820;SDS011;37186;51.394;5.454;2023-09-08T17:48:04;5.18;;;5.07;;
26820;SDS011;37186;51.394;5.454;2023-09-08T17:51:05;5.30;;;5.20;;
26820;SDS011;37186;51.394;5.454;2023-09-08T17:54:05;5.15;;;5.05;;
26820;SDS011;37186;51.394;5.454;2023-09-08T17:57:06;4.68;;;4.57;;
26820;SDS011;37186;51.394;5.454;2023-09-08T18:00:07;4.65;;;4.55;;
26820;SDS011;37186;51.394;5.454;2023-09-08T18:03:08;4.82;;;4.72;;
26820;SDS011;37186;51.394;5.454;2023-09-08T18:06:08;5.22;;;5.13;;
26820;SDS011;37186;51.394;5.454;2023-09-08T18:09:09;5.15;;;5.05;;
26820;SDS011;37186;51.394;5.454;2023-09-08T18:12:10;5.50;;;5.40;;
26820;SDS011;37186;51.394;5.454;2023-09-08T18:15:10;5.55;;;5.45;;
26820;SDS011;37186;51.394;5.454;2023-09-08T18:18:11;5.30;;;5.20;;